createdAt,value
2019-01-03T00:00:13.918Z,7.83
2019-01-03T00:03:06.583Z,8.13
2019-01-03T00:06:05.580Z,7.43
2019-01-03T00:08:51.136Z,8.10
2019-01-03T00:11:35.511Z,8.90
2019-01-03T00:14:34.415Z,8.80
2019-01-03T00:17:19.702Z,7.90
2019-01-03T00:20:18.725Z,8.30
2019-01-03T00:23:05.684Z,7.90
2019-01-03T00:25:59.175Z,7.93
2019-01-03T00:29:01.758Z,9.50
2019-01-03T00:31:47.340Z,7.23
2019-01-03T00:34:43.779Z,8.63
2019-01-03T00:37:48.795Z,9.10
2019-01-03T00:40:41.628Z,8.53
2019-01-03T00:43:30.646Z,8.80
2019-01-03T00:46:16.197Z,8.57
2019-01-03T00:49:03.001Z,8.20
2019-01-03T00:51:56.315Z,8.07
2019-01-03T00:54:49.115Z,8.00
2019-01-03T00:57:51.269Z,8.30
2019-01-03T01:00:36.759Z,8.10
2019-01-03T01:03:29.204Z,8.60
2019-01-03T01:06:13.115Z,8.43
2019-01-03T01:08:58.649Z,8.90
2019-01-03T01:11:44.059Z,8.83
2019-01-03T01:14:29.382Z,7.87
2019-01-03T01:17:16.238Z,9.13
2019-01-03T01:20:11.904Z,8.80
2019-01-03T01:22:57.112Z,8.40
2019-01-03T01:25:42.125Z,8.43
2019-01-03T01:28:38.889Z,8.40
2019-01-03T01:31:41.067Z,8.00
2019-01-03T01:34:36.470Z,7.30
2019-01-03T01:37:39.497Z,8.50
2019-01-03T01:40:19.054Z,8.43
2019-01-03T01:43:04.386Z,7.90
2019-01-03T01:45:49.471Z,8.90
2019-01-03T01:48:36.357Z,8.53
2019-01-03T01:51:21.600Z,7.80
2019-01-03T01:54:17.545Z,7.17
2019-01-03T01:57:27.929Z,8.30
2019-01-03T02:00:14.823Z,8.10
2019-01-03T02:03:19.680Z,7.77
2019-01-03T02:06:12.442Z,6.40
2019-01-03T02:08:59.321Z,8.43
2019-01-03T02:11:51.780Z,7.90
2019-01-03T02:14:42.295Z,7.47
2019-01-03T02:17:32.245Z,7.47
2019-01-03T02:20:27.644Z,7.23
2019-01-03T02:23:12.943Z,6.37
2019-01-03T02:26:11.963Z,6.40
2019-01-03T02:29:07.744Z,7.13
2019-01-03T02:32:07.308Z,6.73
2019-01-03T02:34:52.568Z,6.47
2019-01-03T02:37:45.308Z,6.23
2019-01-03T02:40:32.303Z,5.70
2019-01-03T02:43:19.399Z,6.73
2019-01-03T02:46:21.213Z,6.30
2019-01-03T02:49:06.604Z,5.83
2019-01-03T02:52:02.832Z,5.30
2019-01-03T02:54:48.427Z,5.73
2019-01-03T02:57:32.102Z,6.40
2019-01-03T03:00:27.951Z,6.13
2019-01-03T03:03:16.570Z,5.00
2019-01-03T03:06:06.265Z,4.97
2019-01-03T03:08:46.435Z,5.67
2019-01-03T03:11:33.414Z,5.40
2019-01-03T03:14:18.830Z,5.23
2019-01-03T03:17:17.894Z,5.70
2019-01-03T03:20:16.902Z,5.23
2019-01-03T03:23:02.218Z,5.53
2019-01-03T03:25:49.949Z,5.47
2019-01-03T03:28:52.088Z,5.80
2019-01-03T03:31:48.125Z,5.10
2019-01-03T03:34:44.064Z,5.87
2019-01-03T03:37:29.777Z,4.50
2019-01-03T03:40:35.490Z,5.60
2019-01-03T03:43:31.176Z,5.30
2019-01-03T03:46:33.271Z,5.57
2019-01-03T03:49:20.171Z,5.00
2019-01-03T03:52:15.883Z,5.07
2019-01-03T03:55:17.856Z,4.70
2019-01-03T03:58:03.469Z,5.10
2019-01-03T04:00:50.380Z,5.08
2019-01-03T04:03:37.589Z,5.50
2019-01-03T04:06:22.899Z,6.30
2019-01-03T04:09:08.520Z,4.33
2019-01-03T04:12:07.546Z,4.90
2019-01-03T04:14:56.759Z,5.00
2019-01-03T04:17:42.698Z,4.57
2019-01-03T04:20:33.507Z,4.60
2019-01-03T04:23:18.907Z,5.10
2019-01-03T04:26:04.443Z,4.33
2019-01-03T04:28:49.854Z,4.13
2019-01-03T04:31:46.604Z,4.23
2019-01-03T04:34:48.659Z,3.30
2019-01-03T04:37:44.161Z,4.97
2019-01-03T04:40:34.158Z,4.77
2019-01-03T04:43:26.981Z,5.20
2019-01-03T04:46:08.369Z,4.40
2019-01-03T04:48:53.932Z,5.10
2019-01-03T04:51:39.029Z,5.00
2019-01-03T04:54:28.888Z,5.53
2019-01-03T04:57:33.739Z,5.10
2019-01-03T05:00:38.841Z,5.03
2019-01-03T05:03:37.875Z,5.40
2019-01-03T05:06:31.069Z,5.07
2019-01-03T05:09:16.713Z,4.67
2019-01-03T05:12:09.686Z,4.53
2019-01-03T05:14:55.020Z,5.03
2019-01-03T05:17:40.372Z,4.87
2019-01-03T05:20:27.317Z,4.80
2019-01-03T05:25:52.771Z,4.93
2019-01-03T05:28:38.291Z,4.90
2019-01-03T05:31:36.001Z,5.00
2019-01-03T05:34:25.607Z,4.70
2019-01-03T05:37:18.554Z,6.27
2019-01-03T05:40:04.129Z,5.30
2019-01-03T05:42:50.549Z,5.63
2019-01-03T05:45:46.378Z,5.37
2019-01-03T05:48:47.814Z,6.10
2019-01-03T05:51:43.894Z,6.00
2019-01-03T05:54:33.621Z,5.40
2019-01-03T05:57:19.479Z,6.87
2019-01-03T05:59:59.252Z,5.13
2019-01-03T06:02:44.712Z,5.73
2019-01-03T06:05:34.613Z,5.23
2019-01-03T06:08:24.272Z,5.60
2019-01-03T06:11:19.091Z,5.97
2019-01-03T06:14:20.168Z,5.40
2019-01-03T06:17:07.107Z,6.37
2019-01-03T06:20:05.911Z,5.93
2019-01-03T06:22:52.788Z,5.80
2019-01-03T06:25:38.343Z,6.57
2019-01-03T06:28:31.396Z,5.83
2019-01-03T06:31:27.406Z,6.37
2019-01-03T06:34:26.247Z,5.20
2019-01-03T06:37:18.988Z,5.47
2019-01-03T06:40:14.727Z,6.60
2019-01-03T06:43:01.742Z,4.77
2019-01-03T06:45:47.358Z,5.17
2019-01-03T06:48:32.903Z,5.47
2019-01-03T06:51:28.582Z,5.60
2019-01-03T06:54:15.693Z,4.87
2019-01-03T06:57:17.812Z,5.03
2019-01-03T07:00:07.456Z,5.10
2019-01-03T07:02:52.999Z,5.10
2019-01-03T07:05:42.726Z,5.70
2019-01-03T07:08:35.654Z,5.60
2019-01-03T07:11:22.533Z,5.63
2019-01-03T07:14:08.207Z,4.70
2019-01-03T07:16:55.143Z,5.00
2019-01-03T07:19:48.984Z,4.97
2019-01-03T07:22:33.321Z,4.87
2019-01-03T07:25:22.928Z,5.37
2019-01-03T07:28:09.879Z,4.93
2019-01-03T07:30:55.441Z,4.20
2019-01-03T07:33:42.355Z,4.80
2019-01-03T07:36:38.366Z,4.40
2019-01-03T07:39:24.846Z,4.20
2019-01-03T07:42:26.887Z,4.43
2019-01-03T07:45:22.914Z,4.70
2019-01-03T07:48:09.841Z,4.40
2019-01-03T07:50:50.410Z,4.37
2019-01-03T07:53:36.101Z,4.73
2019-01-03T07:56:22.227Z,4.40
2019-01-03T07:59:21.912Z,4.23
2019-01-03T08:02:10.241Z,4.27
2019-01-03T08:04:56.009Z,4.93
2019-01-03T08:07:41.251Z,4.50
2019-01-03T08:10:28.114Z,4.30
2019-01-03T08:13:13.367Z,4.20
2019-01-03T08:16:12.344Z,3.80
2019-01-03T08:19:11.155Z,4.90
2019-01-03T08:22:14.064Z,3.80
2019-01-03T08:25:06.354Z,4.67
2019-01-03T08:28:02.375Z,4.63
2019-01-03T08:30:54.890Z,4.27
2019-01-03T08:33:57.309Z,5.30
2019-01-03T08:36:44.262Z,4.27
2019-01-03T08:39:35.494Z,4.67
2019-01-03T08:42:21.055Z,3.87
2019-01-03T08:45:08.089Z,3.90
2019-01-03T08:47:58.224Z,3.93
2019-01-03T08:50:43.925Z,3.50
2019-01-03T08:53:29.442Z,3.87
2019-01-03T08:56:19.396Z,3.57
2019-01-03T08:59:08.593Z,5.37
2019-01-03T09:02:19.697Z,3.80
2019-01-03T09:05:12.906Z,4.50
2019-01-03T09:08:13.495Z,3.90
2019-01-03T09:10:58.859Z,4.23
2019-01-03T09:14:00.066Z,3.73
2019-01-03T09:17:08.424Z,3.93
2019-01-03T09:20:10.916Z,4.20
2019-01-03T09:23:12.746Z,3.70
2019-01-03T09:26:22.266Z,4.30
2019-01-03T09:29:20.192Z,3.50
2019-01-03T09:32:38.926Z,3.90
2019-01-03T09:35:31.642Z,4.20
2019-01-03T09:38:18.888Z,4.27
2019-01-03T09:44:39.505Z,4.43
2019-01-03T09:47:31.653Z,4.33
2019-01-03T09:50:39.140Z,4.20
2019-01-03T09:53:25.063Z,4.40
2019-01-03T09:55:56.602Z,4.70
2019-01-03T10:01:44.768Z,4.23
2019-01-03T10:04:16.964Z,4.40
2019-01-03T10:07:00.087Z,4.80
2019-01-03T10:09:39.120Z,4.87
2019-01-03T10:12:12.781Z,4.77
2019-01-03T10:15:14.920Z,5.10
2019-01-03T10:17:40.051Z,5.03
2019-01-03T10:20:20.240Z,4.90
2019-01-03T10:22:49.611Z,4.67
2019-01-03T10:25:29.221Z,4.73
2019-01-03T10:28:05.972Z,5.63
2019-01-03T10:30:37.650Z,6.03
2019-01-03T10:33:12.900Z,5.40
2019-01-03T10:36:07.255Z,5.87
2019-01-03T10:38:38.790Z,6.13
2019-01-03T10:41:28.675Z,6.10
2019-01-03T10:44:20.880Z,5.27
2019-01-03T10:46:54.969Z,6.10
2019-01-03T10:52:43.356Z,5.90
2019-01-03T10:55:43.187Z,8.00
2019-01-03T10:58:05.713Z,6.53
2019-01-03T11:00:38.005Z,6.43
2019-01-03T11:03:09.481Z,6.57
2019-01-03T11:08:41.129Z,6.37
2019-01-03T11:11:39.843Z,7.33
2019-01-03T11:14:18.644Z,6.43
2019-01-03T11:16:55.135Z,6.90
2019-01-03T11:19:28.815Z,6.90
2019-01-03T11:22:01.324Z,7.00
2019-01-03T11:24:33.121Z,6.30
2019-01-03T11:30:04.511Z,6.40
2019-01-03T11:32:44.027Z,6.30
2019-01-03T11:35:29.149Z,5.97
2019-01-03T11:37:53.291Z,6.20
2019-01-03T11:40:32.406Z,5.73
2019-01-03T11:43:17.546Z,6.70
2019-01-03T11:45:58.105Z,6.40
2019-01-03T11:48:38.985Z,7.10
2019-01-03T11:51:18.825Z,6.70
2019-01-03T11:53:51.024Z,6.63
2019-01-03T11:56:22.858Z,6.30
2019-01-03T11:59:03.003Z,6.03
2019-01-03T12:01:38.298Z,6.77
2019-01-03T12:04:47.606Z,6.57
2019-01-03T12:10:18.162Z,7.80
2019-01-03T12:12:48.249Z,6.57
2019-01-03T12:15:36.707Z,7.13
2019-01-03T12:18:05.694Z,7.43
2019-01-03T12:20:44.179Z,6.50
2019-01-03T12:23:16.857Z,6.70
2019-01-03T12:25:57.596Z,8.50
2019-01-03T12:29:05.697Z,7.50
2019-01-03T12:31:25.016Z,8.53
2019-01-03T12:33:59.582Z,7.20
2019-01-03T12:36:29.152Z,7.97
2019-01-03T12:39:29.934Z,7.20
2019-01-03T12:42:01.008Z,7.40
